createdAt,value
2019-04-20T00:01:21.051Z,12.98
2019-04-20T00:03:49.021Z,9.48
2019-04-20T00:06:19.677Z,9.45
2019-04-20T00:08:55.663Z,10.00
2019-04-20T00:11:29.558Z,9.93
2019-04-20T00:14:03.166Z,10.55
2019-04-20T00:16:25.189Z,12.43
2019-04-20T00:18:59.158Z,10.25
2019-04-20T00:21:47.304Z,10.68
2019-04-20T00:24:30.995Z,11.05
2019-04-20T00:27:22.064Z,11.75
2019-04-20T00:29:49.593Z,10.65
2019-04-20T00:32:12.469Z,10.18
2019-04-20T00:34:37.210Z,12.60
2019-04-20T00:37:05.826Z,11.28
2019-04-20T00:39:36.144Z,10.95
2019-04-20T00:42:09.685Z,9.85
2019-04-20T00:44:42.655Z,11.73
2019-04-20T00:47:29.535Z,11.30
2019-04-20T00:49:57.889Z,10.05
2019-04-20T00:52:31.051Z,10.15
2019-04-20T00:54:47.350Z,8.55
2019-04-20T00:57:28.004Z,8.80
2019-04-20T01:00:12.301Z,8.65
2019-04-20T01:02:34.843Z,9.28
2019-04-20T01:05:12.837Z,9.05
2019-04-20T01:07:42.015Z,9.18
2019-04-20T01:10:11.086Z,9.15
2019-04-20T01:12:43.729Z,8.85
2019-04-20T01:15:23.097Z,8.78
2019-04-20T01:17:44.927Z,9.03
2019-04-20T01:20:15.217Z,9.53
2019-04-20T01:22:53.857Z,9.85
2019-04-20T01:25:24.816Z,9.70
2019-04-20T01:28:09.886Z,8.88
2019-04-20T01:30:28.485Z,8.38
2019-04-20T01:33:04.854Z,8.68
2019-04-20T01:35:39.532Z,7.95
2019-04-20T01:38:15.148Z,7.92
2019-04-20T01:40:27.509Z,8.43
2019-04-20T01:42:57.700Z,7.60
2019-04-20T01:45:32.837Z,8.83
2019-04-20T01:48:01.794Z,8.65
2019-04-20T01:50:36.257Z,7.70
2019-04-20T01:53:19.016Z,7.25
2019-04-20T01:55:50.832Z,8.65
2019-04-20T01:58:36.320Z,7.15
2019-04-20T02:01:15.687Z,7.85
2019-04-20T02:04:04.673Z,9.73
2019-04-20T02:06:39.944Z,7.90
2019-04-20T02:09:13.457Z,7.87
2019-04-20T02:11:42.702Z,8.18
2019-04-20T02:14:12.469Z,7.45
2019-04-20T02:16:47.618Z,8.95
2019-04-20T02:19:31.641Z,9.03
2019-04-20T02:21:59.123Z,8.93
2019-04-20T02:24:19.513Z,8.15
2019-04-20T02:26:51.553Z,8.95
2019-04-20T02:29:47.421Z,7.35
2019-04-20T02:32:23.341Z,8.35
2019-04-20T02:38:03.005Z,7.92
2019-04-20T02:40:47.662Z,9.35
2019-04-20T02:45:34.288Z,7.90
2019-04-20T02:48:06.512Z,8.03
2019-04-20T02:53:22.032Z,8.43
2019-04-20T02:55:43.535Z,8.83
2019-04-20T02:58:13.298Z,8.50
2019-04-20T03:00:33.900Z,9.70
2019-04-20T03:02:53.690Z,9.08
2019-04-20T03:05:26.270Z,8.98
2019-04-20T03:08:04.658Z,8.95
2019-04-20T03:10:46.369Z,10.10
2019-04-20T03:13:15.924Z,10.90
2019-04-20T03:15:45.893Z,9.78
2019-04-20T03:18:13.587Z,10.63
2019-04-20T03:20:46.639Z,9.85
2019-04-20T03:26:06.429Z,10.18
2019-04-20T03:28:51.777Z,10.95
2019-04-20T03:31:41.628Z,11.60
2019-04-20T03:36:34.889Z,11.63
2019-04-20T03:39:02.129Z,11.45
2019-04-20T03:41:22.510Z,12.95
2019-04-20T03:43:45.696Z,11.57
2019-04-20T03:46:19.940Z,14.78
2019-04-20T03:49:04.418Z,14.23
2019-04-20T03:51:40.124Z,12.88
2019-04-20T03:54:14.777Z,13.15
2019-04-20T03:57:17.283Z,15.70
2019-04-20T03:59:51.094Z,15.55
2019-04-20T04:05:19.382Z,16.87
2019-04-20T04:07:40.268Z,17.35
2019-04-20T04:10:17.208Z,16.73
2019-04-20T04:13:18.737Z,13.78
2019-04-20T04:15:55.703Z,12.78
2019-04-20T04:18:29.840Z,15.55
2019-04-20T04:21:00.041Z,14.43
2019-04-20T04:23:44.778Z,12.05
2019-04-20T04:26:14.348Z,11.22
2019-04-20T04:28:44.864Z,12.00
2019-04-20T04:31:22.952Z,9.93
2019-04-20T04:33:55.725Z,10.88
2019-04-20T04:36:20.837Z,9.70
2019-04-20T04:39:00.973Z,9.43
2019-04-20T04:41:27.061Z,11.97
2019-04-20T04:44:01.782Z,11.68
2019-04-20T04:46:14.473Z,10.65
2019-04-20T04:48:48.263Z,10.95
2019-04-20T04:51:22.963Z,11.63
2019-04-20T04:53:58.067Z,11.93
2019-04-20T04:56:23.133Z,11.75
2019-04-20T04:58:51.750Z,11.95
2019-04-20T05:01:28.253Z,9.70
2019-04-20T05:04:23.262Z,10.18
2019-04-20T05:06:40.644Z,9.88
2019-04-20T05:09:10.634Z,10.40
2019-04-20T05:11:40.637Z,11.38
2019-04-20T05:14:17.027Z,11.03
2019-04-20T05:16:58.220Z,11.65
2019-04-20T05:19:49.838Z,11.28
2019-04-20T05:22:26.204Z,13.98
2019-04-20T05:25:11.928Z,11.48
2019-04-20T05:27:51.221Z,13.25
2019-04-20T05:30:01.804Z,13.15
2019-04-20T05:32:44.087Z,12.53
2019-04-20T05:35:27.110Z,16.87
2019-04-20T05:38:01.257Z,13.70
2019-04-20T05:40:28.882Z,14.40
2019-04-20T05:43:10.731Z,15.75
2019-04-20T05:45:49.899Z,17.42
2019-04-20T05:48:20.563Z,17.62
2019-04-20T05:50:58.737Z,16.35
2019-04-20T05:56:44.437Z,16.40
2019-04-20T05:59:56.211Z,17.23
2019-04-20T06:02:27.373Z,15.75
2019-04-20T06:05:04.391Z,14.40
2019-04-20T06:10:19.090Z,12.03
2019-04-20T06:12:40.280Z,13.88
2019-04-20T06:15:26.467Z,16.10
2019-04-20T06:18:06.316Z,12.80
2019-04-20T06:21:02.346Z,11.73
2019-04-20T06:26:19.186Z,11.95
2019-04-20T06:28:37.719Z,10.68
2019-04-20T06:31:16.188Z,11.28
2019-04-20T06:34:25.841Z,11.95
2019-04-20T06:36:47.164Z,11.10
2019-04-20T06:39:20.021Z,11.85
2019-04-20T06:44:30.604Z,11.63
2019-04-20T06:49:29.157Z,11.67
2019-04-20T06:52:21.186Z,11.73
2019-04-20T06:55:15.648Z,11.73
2019-04-20T06:57:45.070Z,12.98
2019-04-20T07:00:18.306Z,12.45
2019-04-20T07:02:52.995Z,11.90
2019-04-20T07:05:22.112Z,11.27
2019-04-20T07:07:54.323Z,10.63
2019-04-20T07:10:44.016Z,10.43
2019-04-20T07:12:49.591Z,10.93
2019-04-20T07:15:34.115Z,10.15
2019-04-20T07:18:13.527Z,10.50
2019-04-20T07:21:00.514Z,10.97
2019-04-20T07:26:02.066Z,11.07
2019-04-20T07:28:41.059Z,9.63
2019-04-20T07:31:01.965Z,9.47
2019-04-20T07:33:39.360Z,12.10
2019-04-20T07:36:11.770Z,11.93
2019-04-20T07:38:41.793Z,11.03
2019-04-20T07:41:17.476Z,10.30
2019-04-20T07:43:52.985Z,9.80
2019-04-20T07:46:23.824Z,11.37
2019-04-20T07:49:01.594Z,10.47
2019-04-20T07:51:23.121Z,11.78
2019-04-20T07:54:17.898Z,9.47
2019-04-20T07:56:42.266Z,10.83
2019-04-20T07:58:55.345Z,9.67
2019-04-20T08:02:00.611Z,10.83
2019-04-20T08:04:30.135Z,11.67
2019-04-20T08:06:51.859Z,8.40
2019-04-20T08:09:27.227Z,8.87
2019-04-20T08:12:21.722Z,12.40
2019-04-20T08:14:49.085Z,10.67
2019-04-20T08:17:21.461Z,9.03
2019-04-20T08:19:45.390Z,12.67
2019-04-20T08:22:21.897Z,9.10
2019-04-20T08:24:46.858Z,12.67
2019-04-20T08:27:09.558Z,10.57
2019-04-20T08:29:52.969Z,11.13
2019-04-20T08:32:58.466Z,8.68
2019-04-20T08:35:39.564Z,8.47
2019-04-20T08:38:37.375Z,7.37
2019-04-20T08:40:46.339Z,8.03
2019-04-20T08:43:20.126Z,9.03
2019-04-20T08:45:48.808Z,9.40
2019-04-20T08:48:23.204Z,9.43
2019-04-20T08:50:53.307Z,9.67
2019-04-20T08:55:45.038Z,10.83
2019-04-20T08:58:03.057Z,8.57
2019-04-20T09:00:42.154Z,7.13
2019-04-20T09:03:12.970Z,14.20
2019-04-20T09:05:51.216Z,9.40
2019-04-20T09:08:16.241Z,7.27
2019-04-20T09:11:02.713Z,6.53
2019-04-20T09:13:21.043Z,6.70
2019-04-20T09:15:44.903Z,5.23
2019-04-20T09:18:40.003Z,5.70
2019-04-20T09:21:08.518Z,5.77
2019-04-20T09:23:49.700Z,6.37
2019-04-20T09:26:21.703Z,5.93
2019-04-20T09:29:09.488Z,7.83
2019-04-20T09:31:43.746Z,8.93
2019-04-20T09:37:45.910Z,5.05
2019-04-20T09:40:28.972Z,6.77
2019-04-20T09:43:02.294Z,6.37
2019-04-20T09:45:50.407Z,4.17
2019-04-20T09:48:25.342Z,4.97
2019-04-20T09:51:15.401Z,3.90
2019-04-20T09:53:33.458Z,4.80
2019-04-20T09:56:08.814Z,4.23
2019-04-20T09:58:38.138Z,5.10
2019-04-20T10:01:10.514Z,6.67
2019-04-20T10:03:27.319Z,4.83
2019-04-20T10:05:59.524Z,4.47
2019-04-20T10:08:32.798Z,4.10
2019-04-20T10:11:01.530Z,3.27
2019-04-20T10:13:32.282Z,3.30
2019-04-20T10:16:01.982Z,3.17
2019-04-20T10:18:34.257Z,3.97
2019-04-20T10:21:03.360Z,4.33
2019-04-20T10:23:34.556Z,4.80
2019-04-20T10:26:04.756Z,4.17
2019-04-20T10:28:34.551Z,3.40
2019-04-20T10:31:04.629Z,3.70
2019-04-20T10:33:35.519Z,4.13
2019-04-20T10:36:09.836Z,3.90
2019-04-20T10:38:40.228Z,3.87
2019-04-20T10:41:16.367Z,4.00
2019-04-20T10:43:42.804Z,3.77
2019-04-20T10:46:13.165Z,4.13
2019-04-20T10:48:47.951Z,3.83
2019-04-20T10:51:15.613Z,3.57
2019-04-20T10:53:46.452Z,3.67
2019-04-20T10:56:21.241Z,4.87
2019-04-20T10:58:53.785Z,3.97
2019-04-20T11:01:23.518Z,5.57
2019-04-20T11:03:54.499Z,4.67
2019-04-20T11:06:24.894Z,6.17
2019-04-20T11:08:56.039Z,4.00
2019-04-20T11:11:28.670Z,6.27
2019-04-20T11:14:06.575Z,6.93
2019-04-20T11:16:32.779Z,4.47
2019-04-20T11:19:03.278Z,5.03
2019-04-20T11:21:34.424Z,4.30
2019-04-20T11:24:04.603Z,4.80
2019-04-20T11:26:37.085Z,4.50
2019-04-20T11:29:06.506Z,4.07
2019-04-20T11:31:41.660Z,3.77
2019-04-20T11:34:08.129Z,3.63
2019-04-20T11:36:39.210Z,5.53
2019-04-20T11:39:11.350Z,5.00
2019-04-20T11:41:41.603Z,3.33
2019-04-20T11:44:11.710Z,5.37
2019-04-20T11:46:42.927Z,5.60
2019-04-20T11:49:13.288Z,4.43
2019-04-20T11:51:43.510Z,4.00
2019-04-20T11:54:14.423Z,3.43
2019-04-20T11:56:47.157Z,4.57
2019-04-20T11:59:16.959Z,3.77
2019-04-20T12:02:00.170Z,4.87
2019-04-20T12:04:40.352Z,5.57
2019-04-20T12:07:01.748Z,4.73
2019-04-20T12:09:33.512Z,3.80
2019-04-20T12:12:14.216Z,5.97
2019-04-20T12:14:35.178Z,5.87
2019-04-20T12:17:05.953Z,4.23
2019-04-20T12:19:36.304Z,5.80
2019-04-20T12:22:09.713Z,4.23
2019-04-20T12:24:40.343Z,4.17
2019-04-20T12:27:10.445Z,4.97
2019-04-20T12:29:40.645Z,4.33
2019-04-20T12:32:12.735Z,7.37
2019-04-20T12:34:43.405Z,5.47
2019-04-20T12:37:15.374Z,4.13
2019-04-20T12:39:45.416Z,4.30
2019-04-20T12:42:15.441Z,6.07
2019-04-20T12:44:45.879Z,5.97
2019-04-20T12:47:17.382Z,5.97
2019-04-20T12:49:47.615Z,4.77
2019-04-20T12:52:18.579Z,4.50
2019-04-20T12:54:48.439Z,4.07
2019-04-20T12:57:18.607Z,4.00
2019-04-20T12:59:49.549Z,4.63
2019-04-20T13:02:23.056Z,4.63
2019-04-20T13:04:53.376Z,4.77
2019-04-20T13:07:24.692Z,5.67
2019-04-20T13:09:54.872Z,7.53
2019-04-20T13:12:34.247Z,5.63
2019-04-20T13:15:32.213Z,4.43
2019-04-20T13:18:05.347Z,5.80
2019-04-20T13:20:36.225Z,6.77
2019-04-20T13:23:07.549Z,6.80
2019-04-20T13:25:38.904Z,4.73
2019-04-20T13:28:09.018Z,7.20
2019-04-20T13:30:39.710Z,7.20
2019-04-20T13:33:10.076Z,6.90
2019-04-20T13:35:40.541Z,5.47
2019-04-20T13:38:10.339Z,5.60
2019-04-20T13:40:40.168Z,5.60
2019-04-20T13:43:10.050Z,5.47
2019-04-20T13:45:40.117Z,8.47
2019-04-20T13:48:10.995Z,4.80
2019-04-20T13:50:42.174Z,8.67
2019-04-20T13:53:11.849Z,6.90
2019-04-20T13:55:41.620Z,5.77
2019-04-20T13:58:30.236Z,7.43
2019-04-20T14:01:24.895Z,6.80
2019-04-20T14:04:16.844Z,7.93
2019-04-20T14:06:49.121Z,6.73
2019-04-20T14:09:19.441Z,10.10
2019-04-20T14:11:49.772Z,7.77
2019-04-20T14:14:19.377Z,11.13
2019-04-20T14:16:50.372Z,5.27
2019-04-20T14:19:21.064Z,8.27
2019-04-20T14:21:52.253Z,7.03
2019-04-20T14:24:22.575Z,6.10
2019-04-20T14:26:52.876Z,5.57
2019-04-20T14:29:25.205Z,5.77
2019-04-20T14:31:55.687Z,5.10
2019-04-20T14:34:26.916Z,5.17
2019-04-20T14:36:57.396Z,6.77
2019-04-20T14:39:28.046Z,5.37
2019-04-20T14:41:58.201Z,8.33
2019-04-20T14:44:28.274Z,6.20
2019-04-20T14:46:59.993Z,6.90
2019-04-20T14:49:30.518Z,6.13
2019-04-20T14:52:02.533Z,6.63
2019-04-20T14:54:32.430Z,6.13
2019-04-20T14:57:03.418Z,6.67
2019-04-20T14:59:39.458Z,5.27
2019-04-20T15:02:15.386Z,8.40
2019-04-20T15:04:47.315Z,5.93
2019-04-20T15:07:18.491Z,6.13
2019-04-20T15:09:48.825Z,6.33
2019-04-20T15:12:19.013Z,7.00
2019-04-20T15:14:50.308Z,5.50
2019-04-20T15:17:45.854Z,9.23
2019-04-20T15:20:35.763Z,7.93
2019-04-20T15:23:15.188Z,8.23
2019-04-20T15:25:46.370Z,7.73
2019-04-20T15:28:18.660Z,6.37
2019-04-20T15:30:48.010Z,9.20
2019-04-20T15:33:18.989Z,7.65
2019-04-20T15:35:48.662Z,7.00
2019-04-20T15:38:18.559Z,6.40
2019-04-20T15:40:49.006Z,7.60
2019-04-20T15:43:24.989Z,6.53
2019-04-20T15:45:55.078Z,5.53
2019-04-20T15:48:25.947Z,6.90
2019-04-20T15:50:56.406Z,7.70
2019-04-20T15:53:26.298Z,9.40
2019-04-20T15:55:57.602Z,7.67
2019-04-20T15:58:28.189Z,8.70
2019-04-20T16:00:58.591Z,7.93
2019-04-20T16:03:43.550Z,8.07
2019-04-20T16:06:13.612Z,6.00
2019-04-20T16:08:48.449Z,6.80
2019-04-20T16:11:19.356Z,7.37
2019-04-20T16:13:53.719Z,6.05
2019-04-20T16:16:23.644Z,5.87
2019-04-20T16:18:55.081Z,6.40
2019-04-20T16:21:28.432Z,6.42
2019-04-20T16:24:06.818Z,7.33
2019-04-20T16:26:47.533Z,7.53
2019-04-20T16:29:17.828Z,8.23
2019-04-20T16:31:49.909Z,7.47
2019-04-20T16:34:19.353Z,6.80
2019-04-20T16:36:53.003Z,7.30
2019-04-20T16:39:22.528Z,8.53
2019-04-20T16:41:53.881Z,6.40
2019-04-20T16:44:25.124Z,7.05
2019-04-20T16:46:56.291Z,16.45
2019-04-20T16:49:26.755Z,8.40
2019-04-20T16:51:57.139Z,6.85
2019-04-20T16:54:28.006Z,6.10
2019-04-20T16:56:58.153Z,7.03
2019-04-20T16:59:28.251Z,9.27
2019-04-20T17:02:00.378Z,7.05
2019-04-20T17:04:32.111Z,6.05
2019-04-20T17:07:25.125Z,7.53
2019-04-20T17:09:55.905Z,7.33
2019-04-20T17:12:26.362Z,7.75
2019-04-20T17:14:56.015Z,9.57
2019-04-20T17:17:25.812Z,10.05
2019-04-20T17:19:55.929Z,10.65
2019-04-20T17:22:25.928Z,9.13
2019-04-20T17:24:56.115Z,9.60
2019-04-20T17:27:50.016Z,8.63
2019-04-20T17:30:35.837Z,11.08
2019-04-20T17:33:08.339Z,10.03
2019-04-20T17:35:52.575Z,8.33
2019-04-20T17:38:10.861Z,13.18
2019-04-20T17:41:01.516Z,10.82
2019-04-20T17:43:24.586Z,11.12
2019-04-20T17:45:57.676Z,10.58
2019-04-20T17:48:28.031Z,10.80
2019-04-20T17:51:15.642Z,11.65
2019-04-20T17:53:51.195Z,9.53
2019-04-20T17:56:15.264Z,11.57
2019-04-20T17:58:46.160Z,11.88
2019-04-20T18:01:51.694Z,9.03
2019-04-20T18:04:44.543Z,8.25
2019-04-20T18:06:55.017Z,9.00
2019-04-20T18:09:38.662Z,9.28
2019-04-20T18:11:51.141Z,9.60
2019-04-20T18:14:40.112Z,10.10
2019-04-20T18:17:15.017Z,11.50
2019-04-20T18:19:38.818Z,12.47
2019-04-20T18:22:11.909Z,12.00
2019-04-20T18:25:10.158Z,13.65
2019-04-20T18:27:38.755Z,11.20
2019-04-20T18:30:18.606Z,13.08
2019-04-20T18:32:45.234Z,12.88
2019-04-20T18:35:45.980Z,13.80
2019-04-20T18:38:16.577Z,12.50
2019-04-20T18:40:55.795Z,13.72
2019-04-20T18:43:22.697Z,14.23
2019-04-20T18:46:08.078Z,15.88
2019-04-20T18:48:43.694Z,14.63
2019-04-20T18:50:55.512Z,13.32
2019-04-20T18:53:31.570Z,12.28
2019-04-20T18:56:00.769Z,14.07
2019-04-20T18:58:33.322Z,12.18
2019-04-20T19:01:07.519Z,13.00
2019-04-20T19:03:41.946Z,14.00
2019-04-20T19:06:12.499Z,12.43
2019-04-20T19:08:49.428Z,15.35
2019-04-20T19:11:19.780Z,15.63
2019-04-20T19:14:16.382Z,14.90
2019-04-20T19:16:53.839Z,15.00
2019-04-20T19:19:35.161Z,16.75
2019-04-20T19:21:58.407Z,15.95
2019-04-20T19:24:31.384Z,14.75
2019-04-20T19:27:04.883Z,14.73
2019-04-20T19:29:37.590Z,15.20
2019-04-20T19:32:19.455Z,15.10
2019-04-20T19:34:50.091Z,15.63
2019-04-20T19:37:15.802Z,15.32
2019-04-20T19:39:53.166Z,15.65
2019-04-20T19:42:33.150Z,14.40
2019-04-20T19:45:01.663Z,16.07
2019-04-20T19:47:38.365Z,14.87
2019-04-20T19:50:25.131Z,15.72
2019-04-20T19:52:53.135Z,14.90
2019-04-20T19:55:14.289Z,13.38
2019-04-20T19:57:48.855Z,15.25
2019-04-20T20:00:00.512Z,15.58
2019-04-20T20:02:33.991Z,13.53
2019-04-20T20:05:08.805Z,14.38
2019-04-20T20:07:41.919Z,13.05
2019-04-20T20:10:09.078Z,14.68
2019-04-20T20:12:48.428Z,12.00
2019-04-20T20:15:22.079Z,12.53
2019-04-20T20:18:05.805Z,12.78
2019-04-20T20:20:36.006Z,13.20
2019-04-20T20:22:53.150Z,13.35
2019-04-20T20:25:23.485Z,13.03
2019-04-20T20:27:56.555Z,13.30
2019-04-20T20:30:32.863Z,13.22
2019-04-20T20:33:13.994Z,12.90
2019-04-20T20:35:32.510Z,12.80
2019-04-20T20:38:03.802Z,14.65
2019-04-20T20:40:36.373Z,14.47
2019-04-20T20:43:14.744Z,13.72
2019-04-20T20:45:40.549Z,12.23
2019-04-20T20:48:24.125Z,13.85
2019-04-20T20:50:57.314Z,13.25
2019-04-20T20:53:18.524Z,14.20
2019-04-20T20:55:48.006Z,14.15
2019-04-20T20:58:19.003Z,14.10
2019-04-20T21:01:01.164Z,16.32
2019-04-20T21:03:27.121Z,14.55
2019-04-20T21:05:51.569Z,13.85
2019-04-20T21:08:21.746Z,13.70
2019-04-20T21:10:52.701Z,13.62
2019-04-20T21:13:28.383Z,13.75
2019-04-20T21:16:02.550Z,14.65
2019-04-20T21:18:47.473Z,14.23
2019-04-20T21:21:16.902Z,13.50
2019-04-20T21:23:45.968Z,13.20
2019-04-20T21:26:11.428Z,12.98
2019-04-20T21:31:15.959Z,12.58
2019-04-20T21:33:42.877Z,13.85
2019-04-20T21:36:20.088Z,13.90
2019-04-20T21:38:48.697Z,12.25
2019-04-20T21:41:23.655Z,13.53
2019-04-20T21:43:54.023Z,13.48
2019-04-20T21:46:24.924Z,13.40
2019-04-20T21:49:05.172Z,11.68
2019-04-20T21:51:37.313Z,13.80
2019-04-20T21:54:00.354Z,12.40
2019-04-20T21:56:30.347Z,12.40
2019-04-20T21:59:03.865Z,12.13
2019-04-20T22:01:39.050Z,12.03
2019-04-20T22:04:06.043Z,11.40
2019-04-20T22:06:36.428Z,13.62
2019-04-20T22:09:10.896Z,13.40
2019-04-20T22:11:42.621Z,14.23
2019-04-20T22:14:17.509Z,14.15
2019-04-20T22:16:49.593Z,12.78
2019-04-20T22:19:29.893Z,13.55
2019-04-20T22:22:00.928Z,12.47
2019-04-20T22:24:34.254Z,12.10
2019-04-20T22:27:03.085Z,12.82
2019-04-20T22:29:23.979Z,12.60
2019-04-20T22:32:00.487Z,12.37
2019-04-20T22:34:28.054Z,13.22
2019-04-20T22:36:58.031Z,13.00
2019-04-20T22:39:39.408Z,11.97
2019-04-20T22:42:07.141Z,12.13
2019-04-20T22:44:36.347Z,13.35
2019-04-20T22:47:14.112Z,12.65
2019-04-20T22:49:52.918Z,12.37
2019-04-20T22:52:29.159Z,12.40
2019-04-20T22:55:01.198Z,11.88
2019-04-20T22:57:31.762Z,13.03
2019-04-20T22:59:58.040Z,11.65
2019-04-20T23:02:23.099Z,11.38
2019-04-20T23:04:53.109Z,10.78
2019-04-20T23:07:23.177Z,11.20
2019-04-20T23:09:57.646Z,10.85
2019-04-20T23:12:26.998Z,10.15
2019-04-20T23:14:56.477Z,11.65
2019-04-20T23:17:33.489Z,10.53
2019-04-20T23:20:01.019Z,10.28
2019-04-20T23:22:36.849Z,11.20
2019-04-20T23:25:03.035Z,10.32
2019-04-20T23:27:35.555Z,10.55
2019-04-20T23:30:17.523Z,9.43
2019-04-20T23:32:37.900Z,10.35
2019-04-20T23:35:12.990Z,12.00
2019-04-20T23:37:41.657Z,10.40
2019-04-20T23:40:14.871Z,10.20
2019-04-20T23:42:49.538Z,10.32
2019-04-20T23:45:45.539Z,10.68
2019-04-20T23:48:18.473Z,10.70
2019-04-20T23:51:06.832Z,10.85
2019-04-20T23:53:39.453Z,9.70
2019-04-20T23:55:52.074Z,10.00
2019-04-20T23:58:22.010Z,9.53
